SCVH weather

La Victoria de Chacabuco Airport
Santiago, Santiago Metropolitan Region, Chile

Public forecast

Using degrees Celsius for public forecast. Weather courtesy of forecast.io.

METAR (pilot weather report)

Report is more than 6 hours old.

Closest report is Lipangui Airport, 18.3 nm (33.8 km) SSW. Retrieved 2019/04/24 05:00 UTC (3 months ago):

SCKL 240500Z 15003KT 120V180 9999 VCSH SCT020 BKN080 20/19 A3005 RMK VCSH S/SW

TAF (pilot weather forecast)

Closest forecast is Comodoro Arturo Merino Benítez International Airport, 20.9 nm (38.7 km) S. Retrieved 2019/07/22 06:00 UTC (2 hours ago):

TAF COR SCEL 220502Z 2206/2306 16004KT 4000 BR FEW020 TX10/2219Z TN01 /2211Z BECMG 2208/2210 2000 BR NSC TEMPO 2211/2214 VRB02KT 0800 BCFG BECMG 2218/2220 19008KT TEMPO 2222/2304 15008KT